Madokamiya — JD3236 — position and weather

sailwx.info

Track history (hours):
 
Tides and Currents Weather Stations Pressure Air Temp Water Temp Dewpoint Dewpoint Depression Visibility Wind Speed Wind Dir Waves Ship Positions

Madokamiya

Last reported at 2018-Jul-19 21:04 UTC. Time now 2018-Jul-20 06:44 UTC.
Position N 35°23' E 139°46'.

Length 75 m.

Type: Cargo ship. MMSI: 431002903.

Date/timePositionNaut miles runAvg speedWind from/ knotsBaromVisibWave heightAir tempDewpointWater temp
2018-Jul-19 21:04N 35°23' E 139°46'111.2
2018-Jul-19 20:59N 35°22' E 139°45'710.3
2018-Jul-19 20:16N 35°15' E 139°47'311.0
2018-Jul-19 19:58N 35°11' E 139°47'510.9
2018-Jul-19 19:30N 35°07' E 139°44'611.0
2018-Jul-19 19:00N 35°02' E 139°40'  
2018-Jul-10 11:59N 34°27' E 134°40'2310.6
2018-Jul-10 09:48N 34°05' E 134°49'711.1
2018-Jul-10 09:07N 33°59' E 134°55'210.9
2018-Jul-10 08:58N 33°58' E 134°57'  
Track history (hours):
 
Tides and Currents Weather Stations Pressure Air Temp Water Temp Dewpoint Dewpoint Depression Visibility Wind Speed Wind Dir Waves Ship Positions

Madokamiya

Last reported at 2018-Jul-19 21:04 UTC. Time now 2018-Jul-20 06:44 UTC.
Position N 35°23' E 139°46'.

Length 75 m.

Type: Cargo ship. MMSI: 431002903.

Date/timePositionNaut miles runAvg speedWind from/ knotsBaromVisibWave heightAir tempDewpointWater temp
2018-Jul-19 21:04N 35°23' E 139°46'111.2
2018-Jul-19 20:59N 35°22' E 139°45'710.3
2018-Jul-19 20:16N 35°15' E 139°47'311.0
2018-Jul-19 19:58N 35°11' E 139°47'510.9
2018-Jul-19 19:30N 35°07' E 139°44'611.0
2018-Jul-19 19:00N 35°02' E 139°40'  
2018-Jul-10 11:59N 34°27' E 134°40'2310.6
2018-Jul-10 09:48N 34°05' E 134°49'711.1
2018-Jul-10 09:07N 33°59' E 134°55'210.9
2018-Jul-10 08:58N 33°58' E 134°57'  

Dump ship's entire track history